Terminal Aerodrome Forecast
Issued by NWS Boston, MA

Home | Current Version | Previous Version | Text Only | Print | Product List | Glossary On
Versions: 1 2 3 4 5 6 7 8 9 10 11 12 13 14 15 16 17 18 19 20 21 22 23 24 25 26 27 28 29 30 31 32 33 34 35 36 37 38 39 40 41 42 43 44 45
000
FTUS41 KBOX 221136
TAFBOS
TAF
KBOS 221136Z 2212/2318 35006KT P6SM SCT010 OVC020
     FM221400 03006KT P6SM OVC010
     FM221800 06007KT P6SM -SHRA OVC008
     FM222200 08007KT P6SM OVC008
     FM230000 08006KT P6SM OVC010
     FM231100 10010KT 2SM -SHRA OVC008=

USA.gov is the U.S. government's official web portal to all federal, state and local government web resources and services.